Date,TemperatureHighF,TemperatureAvgF,TemperatureLowF,DewpointHighF,DewpointAvgF,DewpointLowF,HumidityHigh,HumidityAvg,HumidityLow,PressureMaxIn,PressureMinIn,WindSpeedMaxMPH,WindSpeedAvgMPH,GustSpeedMaxMPH,PrecipitationSumIn
2013-3-1,56.5,38.1,18.4,24.5,17.4,6.9,68,46,27,30.39,30.32,14,4,14,0.00
2013-3-2,63.9,41.3,21.2,29.5,21.3,14.1,79,49,23,30.39,30.21,13,2,13,0.00
2013-3-3,58.9,44.4,32.9,27.0,22.6,17.0,63,44,20,30.22,29.99,24,6,24,0.00
2013-3-4,58.0,43.4,28.6,30.0,23.3,17.3,62,46,24,30.18,29.95,16,5,16,0.00
2013-3-5,59.8,38.6,21.2,28.6,20.7,14.0,80,52,27,30.23,30.10,12,2,12,0.00
2013-3-6,58.0,44.9,35.3,30.7,25.5,21.5,65,48,30,30.11,30.00,20,6,20,0.00
2013-3-7,58.1,41.7,25.6,30.1,23.1,17.1,76,50,29,30.04,29.96,18,5,20,0.00
2013-3-8,41.4,32.7,23.8,34.5,26.3,18.7,87,78,61,29.96,29.75,11,2,11,0.36
2013-3-9,37.3,30.1,24.7,30.9,25.5,20.3,88,83,76,30.07,29.82,17,4,17,0.10
2013-3-10,42.5,34.1,30.1,27.7,25.6,22.0,83,72,46,30.19,30.05,18,7,18,0.52
2013-3-11,41.4,32.4,27.2,25.5,21.6,19.3,72,64,53,30.19,30.15,4,1,4,0.00
2013-3-12,58.7,39.3,21.1,31.1,23.2,15.4,82,56,28,30.27,30.16,14,3,14,0.00
2013-3-13,63.4,42.8,24.1,33.4,24.8,18.7,85,54,25,30.34,30.27,11,2,11,0.00
2013-3-14,69.3,46.4,27.5,32.8,24.7,19.5,84,49,17,30.36,30.27,11,3,11,0.00
2013-3-15,73.3,50.4,28.4,35.3,27.1,20.6,78,46,17,30.28,30.10,22,4,22,0.01
2013-3-16,67.3,49.6,35.1,34.9,28.4,23.8,72,47,22,30.11,29.95,21,4,21,0.00
2013-3-17,63.7,46.6,32.0,31.5,19.0,4.9,71,40,8,30.04,29.94,22,6,22,0.00
2013-3-18,64.3,46.5,26.3,24.4,15.5,8.7,54,32,15,30.11,30.01,20,4,20,0.00
2013-3-19,60.5,44.4,31.1,29.3,22.0,16.4,67,44,23,30.21,30.05,13,2,13,0.00
2013-3-20,61.9,45.2,27.5,32.3,25.4,16.6,73,48,30,30.21,29.97,24,5,24,0.00
2013-3-21,65.2,50.5,33.1,33.6,19.0,5.6,62,34,13,29.98,29.88,18,6,18,0.00
2013-3-22,62.1,42.4,23.6,24.9,9.3,-10.1,61,30,9,29.91,29.82,21,4,21,0.01
2013-3-23,50.0,37.0,22.1,8.1,-0.3,-10.1,39,22,9,30.07,29.90,20,5,20,0.00
2013-3-24,52.6,28.9,15.8,12.1,4.3,-0.1,57,38,16,30.08,30.00,16,2,16,0.01
2013-3-25,60.7,39.9,19.1,17.7,10.8,3.9,58,33,17,30.13,30.05,13,3,13,0.00
2013-3-26,63.0,47.5,34.7,23.3,18.2,14.6,47,32,19,30.10,29.99,21,5,21,0.00
2013-3-27,66.6,46.0,25.2,27.0,18.7,12.7,64,37,18,30.10,30.01,19,4,19,0.00
2013-3-28,65.2,49.9,35.8,28.1,22.3,16.7,48,35,24,30.17,30.08,20,5,20,0.00
2013-3-29,71.1,51.4,32.9,41.5,26.5,18.9,62,40,19,30.22,30.16,14,3,15,0.02
2013-3-30,67.0,51.2,34.9,34.4,26.7,22.0,63,41,25,30.21,30.13,13,4,13,0.00
2013-3-31,71.6,52.1,36.0,34.9,27.3,19.6,64,41,24,30.15,30.06,18,4,18,0.00